Strona główna
METAR-TAF:

METAR-TAF

Lotnisko :

Islay, Szkocja

Szerokość geograficzna: 55-40-55N, Długość geograficzna: 006-15-24W, wysokość: 16 m

Aktualna obserwacja pogody

Raport powstał 41 minut temu, godzina 01:50 UTC
Wiatr 5 kt od północno-północny wschód, zmienny między północ i wschodnio-północny wschód
Temperatura 0°C
Wilgotność 74%
Ciśnienie 1048 hPa
Widzialność 10 km lub więcej

METAR: EGPI 290150Z AUTO 02005KT 350V070 9999 NCD M00/M04 Q1048

czas: 03:31 (02:31 UTC)

Prognoza

Raport powstał 31 minut temu, godzina 02:00 UTC
Prognoza ważna od 29 godzina 03 UTC do 29 godzina 12 UTC
Wiatr 9 kt od północny wschód
Widzialność 10 km lub więcej
Mało chmury na wysokości 4500 ft

TAF: EGPI 290200Z 2903/2912 05009KT 9999 FEW045

Obserwacja i prognoza pogody dla ponad 4000 lotnisk (raport METAR i TAF).

Dostępne stacje oznaczono żółtymi i czerwonymi punktami na mapie.

Najedź kursorem aby zobaczyć nazwę stacji.

Kliknij aby zobaczyć obserwacje i prognozy pogody.

Aby zmienić mapę: kliknij na zielony przycisk z czarnym krzyżykiem, aby powiększyć; na zielony przycisk z myślnikiem, aby pomniejszyć; na zielone strzałki, aby przejść do map sąsiednich.


METAR-TAF: